sensor_id;sensor_type;location;lat;lon;timestamp;P1;durP1;ratioP1;P2;durP2;ratioP2
42200;SDS011;27869;51.442;7.540;2023-02-15T00:01:32;23.00;;;8.82;;
42200;SDS011;27869;51.442;7.540;2023-02-15T00:03:59;22.88;;;8.90;;
42200;SDS011;27869;51.442;7.540;2023-02-15T00:06:26;22.75;;;8.75;;
42200;SDS011;27869;51.442;7.540;2023-02-15T00:08:53;20.95;;;8.68;;
42200;SDS011;27869;51.442;7.540;2023-02-15T00:11:21;23.45;;;9.35;;
42200;SDS011;27869;51.442;7.540;2023-02-15T00:14:02;22.85;;;9.23;;
42200;SDS011;27869;51.442;7.540;2023-02-15T00:16:31;25.42;;;9.50;;
42200;SDS011;27869;51.442;7.540;2023-02-15T00:18:58;27.92;;;9.60;;
42200;SDS011;27869;51.442;7.540;2023-02-15T00:21:26;21.83;;;9.10;;
42200;SDS011;27869;51.442;7.540;2023-02-15T00:23:54;25.23;;;8.82;;
42200;SDS011;27869;51.442;7.540;2023-02-15T00:26:21;26.92;;;9.38;;
42200;SDS011;27869;51.442;7.540;2023-02-15T00:28:48;22.98;;;9.20;;
42200;SDS011;27869;51.442;7.540;2023-02-15T00:31:16;24.40;;;9.52;;
42200;SDS011;27869;51.442;7.540;2023-02-15T00:33:43;24.33;;;9.15;;
42200;SDS011;27869;51.442;7.540;2023-02-15T00:36:10;24.98;;;10.02;;
42200;SDS011;27869;51.442;7.540;2023-02-15T00:38:37;22.88;;;9.50;;
42200;SDS011;27869;51.442;7.540;2023-02-15T00:41:05;22.45;;;9.10;;
42200;SDS011;27869;51.442;7.540;2023-02-15T00:43:34;20.80;;;8.75;;
42200;SDS011;27869;51.442;7.540;2023-02-15T00:46:01;23.13;;;9.43;;
42200;SDS011;27869;51.442;7.540;2023-02-15T00:48:30;22.73;;;9.20;;
42200;SDS011;27869;51.442;7.540;2023-02-15T00:50:58;23.45;;;9.65;;
42200;SDS011;27869;51.442;7.540;2023-02-15T00:53:26;25.58;;;9.40;;
42200;SDS011;27869;51.442;7.540;2023-02-15T00:55:54;23.65;;;9.40;;
42200;SDS011;27869;51.442;7.540;2023-02-15T00:58:21;25.40;;;10.05;;
42200;SDS011;27869;51.442;7.540;2023-02-15T01:00:48;26.13;;;9.38;;
42200;SDS011;27869;51.442;7.540;2023-02-15T01:03:16;24.77;;;8.80;;
42200;SDS011;27869;51.442;7.540;2023-02-15T01:05:45;23.20;;;9.60;;
42200;SDS011;27869;51.442;7.540;2023-02-15T01:08:13;24.95;;;10.13;;
42200;SDS011;27869;51.442;7.540;2023-02-15T01:10:40;23.15;;;9.40;;
42200;SDS011;27869;51.442;7.540;2023-02-15T01:13:09;22.20;;;9.98;;
42200;SDS011;27869;51.442;7.540;2023-02-15T01:15:35;27.30;;;10.30;;
42200;SDS011;27869;51.442;7.540;2023-02-15T01:18:03;23.73;;;10.02;;
42200;SDS011;27869;51.442;7.540;2023-02-15T01:20:30;24.25;;;9.88;;
42200;SDS011;27869;51.442;7.540;2023-02-15T01:23:03;23.38;;;9.30;;
42200;SDS011;27869;51.442;7.540;2023-02-15T01:25:29;21.98;;;9.27;;
42200;SDS011;27869;51.442;7.540;2023-02-15T01:27:56;26.38;;;10.43;;
42200;SDS011;27869;51.442;7.540;2023-02-15T01:30:23;25.10;;;9.35;;
42200;SDS011;27869;51.442;7.540;2023-02-15T01:32:50;22.85;;;9.93;;
42200;SDS011;27869;51.442;7.540;2023-02-15T01:35:17;26.10;;;9.70;;
42200;SDS011;27869;51.442;7.540;2023-02-15T01:37:44;25.65;;;10.30;;
42200;SDS011;27869;51.442;7.540;2023-02-15T01:40:13;25.15;;;10.13;;
42200;SDS011;27869;51.442;7.540;2023-02-15T01:42:41;23.38;;;8.90;;
42200;SDS011;27869;51.442;7.540;2023-02-15T01:45:14;24.80;;;10.40;;
42200;SDS011;27869;51.442;7.540;2023-02-15T01:47:48;26.63;;;10.40;;
42200;SDS011;27869;51.442;7.540;2023-02-15T01:50:18;27.42;;;10.30;;
42200;SDS011;27869;51.442;7.540;2023-02-15T01:52:48;25.45;;;10.43;;
42200;SDS011;27869;51.442;7.540;2023-02-15T01:55:20;23.13;;;9.27;;
42200;SDS011;27869;51.442;7.540;2023-02-15T01:57:48;24.73;;;10.48;;
42200;SDS011;27869;51.442;7.540;2023-02-15T02:00:16;24.38;;;10.25;;
42200;SDS011;27869;51.442;7.540;2023-02-15T02:02:43;22.35;;;9.45;;
42200;SDS011;27869;51.442;7.540;2023-02-15T02:05:13;23.02;;;9.98;;
42200;SDS011;27869;51.442;7.540;2023-02-15T02:07:41;22.00;;;9.98;;
42200;SDS011;27869;51.442;7.540;2023-02-15T02:10:11;23.90;;;9.82;;
42200;SDS011;27869;51.442;7.540;2023-02-15T02:12:43;23.77;;;9.43;;
42200;SDS011;27869;51.442;7.540;2023-02-15T02:15:13;25.45;;;10.38;;
42200;SDS011;27869;51.442;7.540;2023-02-15T02:17:42;26.63;;;10.25;;
42200;SDS011;27869;51.442;7.540;2023-02-15T02:20:26;25.63;;;10.68;;
42200;SDS011;27869;51.442;7.540;2023-02-15T02:23:16;23.23;;;9.63;;
42200;SDS011;27869;51.442;7.540;2023-02-15T02:28:41;24.60;;;9.23;;
42200;SDS011;27869;51.442;7.540;2023-02-15T02:31:43;25.88;;;9.65;;
42200;SDS011;27869;51.442;7.540;2023-02-15T02:34:19;26.50;;;10.15;;
42200;SDS011;27869;51.442;7.540;2023-02-15T02:36:52;24.48;;;10.27;;
42200;SDS011;27869;51.442;7.540;2023-02-15T02:39:28;23.77;;;9.95;;
42200;SDS011;27869;51.442;7.540;2023-02-15T02:42:01;24.23;;;10.55;;
42200;SDS011;27869;51.442;7.540;2023-02-15T02:44:38;24.45;;;9.85;;
42200;SDS011;27869;51.442;7.540;2023-02-15T02:47:09;24.27;;;9.88;;
42200;SDS011;27869;51.442;7.540;2023-02-15T02:49:42;25.83;;;10.30;;
42200;SDS011;27869;51.442;7.540;2023-02-15T02:55:03;24.00;;;9.32;;
42200;SDS011;27869;51.442;7.540;2023-02-15T02:57:32;25.83;;;10.55;;
42200;SDS011;27869;51.442;7.540;2023-02-15T03:00:03;24.95;;;10.25;;
42200;SDS011;27869;51.442;7.540;2023-02-15T03:02:34;22.45;;;9.35;;
42200;SDS011;27869;51.442;7.540;2023-02-15T03:05:08;27.25;;;9.75;;
42200;SDS011;27869;51.442;7.540;2023-02-15T03:07:39;23.80;;;9.80;;
42200;SDS011;27869;51.442;7.540;2023-02-15T03:10:09;23.08;;;9.68;;
42200;SDS011;27869;51.442;7.540;2023-02-15T03:12:37;23.85;;;8.98;;
42200;SDS011;27869;51.442;7.540;2023-02-15T03:15:06;24.27;;;10.00;;
42200;SDS011;27869;51.442;7.540;2023-02-15T03:17:37;25.75;;;9.77;;
42200;SDS011;27869;51.442;7.540;2023-02-15T03:20:10;24.98;;;10.18;;
42200;SDS011;27869;51.442;7.540;2023-02-15T03:22:42;26.05;;;10.00;;
42200;SDS011;27869;51.442;7.540;2023-02-15T03:25:14;26.38;;;9.77;;
42200;SDS011;27869;51.442;7.540;2023-02-15T03:27:47;25.00;;;11.02;;
42200;SDS011;27869;51.442;7.540;2023-02-15T03:30:17;24.42;;;9.85;;
42200;SDS011;27869;51.442;7.540;2023-02-15T03:32:42;24.60;;;9.68;;
42200;SDS011;27869;51.442;7.540;2023-02-15T03:35:12;24.60;;;10.02;;
42200;SDS011;27869;51.442;7.540;2023-02-15T03:37:40;24.25;;;10.05;;
42200;SDS011;27869;51.442;7.540;2023-02-15T03:40:12;24.25;;;9.32;;
42200;SDS011;27869;51.442;7.540;2023-02-15T03:43:00;26.77;;;9.85;;
42200;SDS011;27869;51.442;7.540;2023-02-15T03:45:33;22.48;;;9.75;;
42200;SDS011;27869;51.442;7.540;2023-02-15T03:48:19;23.48;;;10.00;;
42200;SDS011;27869;51.442;7.540;2023-02-15T03:50:50;23.27;;;10.25;;
42200;SDS011;27869;51.442;7.540;2023-02-15T03:53:37;25.70;;;9.90;;
42200;SDS011;27869;51.442;7.540;2023-02-15T03:56:05;23.10;;;9.88;;
42200;SDS011;27869;51.442;7.540;2023-02-15T03:58:32;28.15;;;9.93;;
42200;SDS011;27869;51.442;7.540;2023-02-15T04:01:23;23.35;;;10.00;;
42200;SDS011;27869;51.442;7.540;2023-02-15T04:04:11;22.80;;;10.10;;
42200;SDS011;27869;51.442;7.540;2023-02-15T04:06:45;22.55;;;9.32;;
42200;SDS011;27869;51.442;7.540;2023-02-15T04:09:12;23.25;;;9.60;;
42200;SDS011;27869;51.442;7.540;2023-02-15T04:11:56;23.33;;;9.95;;
42200;SDS011;27869;51.442;7.540;2023-02-15T04:14:23;21.92;;;9.48;;
42200;SDS011;27869;51.442;7.540;2023-02-15T04:17:08;24.70;;;11.15;;
42200;SDS011;27869;51.442;7.540;2023-02-15T04:19:35;25.27;;;10.15;;
42200;SDS011;27869;51.442;7.540;2023-02-15T04:22:21;23.20;;;9.32;;
42200;SDS011;27869;51.442;7.540;2023-02-15T04:25:05;25.83;;;10.07;;
42200;SDS011;27869;51.442;7.540;2023-02-15T04:27:35;22.92;;;9.32;;
42200;SDS011;27869;51.442;7.540;2023-02-15T04:30:02;23.92;;;10.05;;
42200;SDS011;27869;51.442;7.540;2023-02-15T04:32:29;24.17;;;9.85;;
42200;SDS011;27869;51.442;7.540;2023-02-15T04:34:56;25.10;;;10.10;;
42200;SDS011;27869;51.442;7.540;2023-02-15T04:37:24;23.48;;;10.32;;
42200;SDS011;27869;51.442;7.540;2023-02-15T04:39:51;24.92;;;10.85;;
42200;SDS011;27869;51.442;7.540;2023-02-15T04:42:18;24.35;;;9.93;;
42200;SDS011;27869;51.442;7.540;2023-02-15T04:44:45;25.83;;;10.75;;
42200;SDS011;27869;51.442;7.540;2023-02-15T04:47:11;25.52;;;10.18;;
42200;SDS011;27869;51.442;7.540;2023-02-15T04:49:38;24.85;;;9.52;;
42200;SDS011;27869;51.442;7.540;2023-02-15T04:52:05;24.58;;;10.88;;
42200;SDS011;27869;51.442;7.540;2023-02-15T04:54:33;24.92;;;9.93;;
42200;SDS011;27869;51.442;7.540;2023-02-15T04:57:02;27.35;;;10.20;;
42200;SDS011;27869;51.442;7.540;2023-02-15T04:59:28;24.83;;;9.60;;
42200;SDS011;27869;51.442;7.540;2023-02-15T05:01:55;22.55;;;9.25;;
42200;SDS011;27869;51.442;7.540;2023-02-15T05:04:22;25.88;;;9.85;;
42200;SDS011;27869;51.442;7.540;2023-02-15T05:06:49;26.52;;;10.73;;
42200;SDS011;27869;51.442;7.540;2023-02-15T05:09:16;25.23;;;9.63;;
42200;SDS011;27869;51.442;7.540;2023-02-15T05:11:45;24.63;;;10.35;;
42200;SDS011;27869;51.442;7.540;2023-02-15T05:14:12;25.92;;;10.52;;
42200;SDS011;27869;51.442;7.540;2023-02-15T05:16:38;24.02;;;9.90;;
42200;SDS011;27869;51.442;7.540;2023-02-15T05:19:05;21.95;;;9.85;;
42200;SDS011;27869;51.442;7.540;2023-02-15T05:21:32;25.23;;;9.73;;
42200;SDS011;27869;51.442;7.540;2023-02-15T05:24:00;24.67;;;9.63;;
42200;SDS011;27869;51.442;7.540;2023-02-15T05:26:48;24.98;;;10.48;;
42200;SDS011;27869;51.442;7.540;2023-02-15T05:29:32;28.38;;;10.43;;
42200;SDS011;27869;51.442;7.540;2023-02-15T05:31:59;25.85;;;10.52;;
42200;SDS011;27869;51.442;7.540;2023-02-15T05:34:27;23.33;;;9.48;;
42200;SDS011;27869;51.442;7.540;2023-02-15T05:36:54;23.42;;;10.07;;
42200;SDS011;27869;51.442;7.540;2023-02-15T05:39:21;24.45;;;9.43;;
42200;SDS011;27869;51.442;7.540;2023-02-15T05:41:49;23.50;;;10.10;;
42200;SDS011;27869;51.442;7.540;2023-02-15T05:44:16;24.92;;;9.82;;
42200;SDS011;27869;51.442;7.540;2023-02-15T05:46:43;21.75;;;9.18;;
42200;SDS011;27869;51.442;7.540;2023-02-15T05:49:09;25.02;;;10.05;;
42200;SDS011;27869;51.442;7.540;2023-02-15T05:51:36;24.48;;;10.63;;
42200;SDS011;27869;51.442;7.540;2023-02-15T05:54:03;23.30;;;10.13;;
42200;SDS011;27869;51.442;7.540;2023-02-15T05:56:30;25.40;;;10.13;;
42200;SDS011;27869;51.442;7.540;2023-02-15T05:58:58;24.08;;;10.18;;
42200;SDS011;27869;51.442;7.540;2023-02-15T06:01:25;26.77;;;10.27;;
42200;SDS011;27869;51.442;7.540;2023-02-15T06:03:52;25.45;;;10.02;;
42200;SDS011;27869;51.442;7.540;2023-02-15T06:06:19;25.77;;;10.25;;
42200;SDS011;27869;51.442;7.540;2023-02-15T06:08:46;28.52;;;11.15;;
42200;SDS011;27869;51.442;7.540;2023-02-15T06:11:12;23.45;;;9.90;;
42200;SDS011;27869;51.442;7.540;2023-02-15T06:13:39;24.50;;;10.23;;
42200;SDS011;27869;51.442;7.540;2023-02-15T06:16:08;26.35;;;10.73;;
42200;SDS011;27869;51.442;7.540;2023-02-15T06:18:35;23.90;;;9.32;;
42200;SDS011;27869;51.442;7.540;2023-02-15T06:21:02;26.60;;;9.60;;
42200;SDS011;27869;51.442;7.540;2023-02-15T06:23:29;26.33;;;9.52;;
42200;SDS011;27869;51.442;7.540;2023-02-15T06:25:55;23.40;;;9.90;;
42200;SDS011;27869;51.442;7.540;2023-02-15T06:28:23;22.48;;;9.50;;
42200;SDS011;27869;51.442;7.540;2023-02-15T06:30:51;27.10;;;9.52;;
42200;SDS011;27869;51.442;7.540;2023-02-15T06:33:19;24.33;;;9.52;;
42200;SDS011;27869;51.442;7.540;2023-02-15T06:35:46;25.77;;;10.23;;
42200;SDS011;27869;51.442;7.540;2023-02-15T06:38:16;23.42;;;9.70;;
42200;SDS011;27869;51.442;7.540;2023-02-15T06:40:43;24.60;;;9.80;;
42200;SDS011;27869;51.442;7.540;2023-02-15T06:43:10;23.80;;;9.50;;
42200;SDS011;27869;51.442;7.540;2023-02-15T06:45:37;23.65;;;9.15;;
42200;SDS011;27869;51.442;7.540;2023-02-15T06:48:04;23.52;;;9.73;;
42200;SDS011;27869;51.442;7.540;2023-02-15T06:50:33;21.95;;;9.52;;
42200;SDS011;27869;51.442;7.540;2023-02-15T06:53:02;23.58;;;9.57;;
42200;SDS011;27869;51.442;7.540;2023-02-15T06:55:29;24.33;;;10.50;;
42200;SDS011;27869;51.442;7.540;2023-02-15T06:57:55;24.13;;;9.77;;
42200;SDS011;27869;51.442;7.540;2023-02-15T07:00:22;23.08;;;9.20;;
42200;SDS011;27869;51.442;7.540;2023-02-15T07:02:52;23.45;;;9.63;;
42200;SDS011;27869;51.442;7.540;2023-02-15T07:05:21;25.67;;;10.13;;
42200;SDS011;27869;51.442;7.540;2023-02-15T07:07:49;25.52;;;10.18;;
42200;SDS011;27869;51.442;7.540;2023-02-15T07:10:16;25.45;;;10.15;;
42200;SDS011;27869;51.442;7.540;2023-02-15T07:12:43;24.83;;;9.95;;
42200;SDS011;27869;51.442;7.540;2023-02-15T07:15:11;25.50;;;10.45;;
42200;SDS011;27869;51.442;7.540;2023-02-15T07:17:39;24.73;;;9.82;;
42200;SDS011;27869;51.442;7.540;2023-02-15T07:20:08;27.10;;;10.82;;
42200;SDS011;27869;51.442;7.540;2023-02-15T07:22:36;24.90;;;10.25;;
42200;SDS011;27869;51.442;7.540;2023-02-15T07:25:05;24.85;;;9.82;;
42200;SDS011;27869;51.442;7.540;2023-02-15T07:27:34;28.70;;;11.32;;
42200;SDS011;27869;51.442;7.540;2023-02-15T07:30:02;27.85;;;10.45;;
42200;SDS011;27869;51.442;7.540;2023-02-15T07:32:30;26.90;;;10.68;;
42200;SDS011;27869;51.442;7.540;2023-02-15T07:34:58;28.40;;;11.02;;
42200;SDS011;27869;51.442;7.540;2023-02-15T07:37:25;27.45;;;10.18;;
42200;SDS011;27869;51.442;7.540;2023-02-15T07:39:52;25.65;;;10.57;;
42200;SDS011;27869;51.442;7.540;2023-02-15T07:42:20;25.17;;;9.82;;
42200;SDS011;27869;51.442;7.540;2023-02-15T07:44:47;24.70;;;9.60;;
42200;SDS011;27869;51.442;7.540;2023-02-15T07:47:14;29.25;;;10.85;;
42200;SDS011;27869;51.442;7.540;2023-02-15T07:49:41;27.10;;;10.32;;
42200;SDS011;27869;51.442;7.540;2023-02-15T07:52:08;27.05;;;10.43;;
42200;SDS011;27869;51.442;7.540;2023-02-15T07:54:35;27.75;;;10.95;;
42200;SDS011;27869;51.442;7.540;2023-02-15T07:57:02;30.40;;;11.20;;
42200;SDS011;27869;51.442;7.540;2023-02-15T07:59:30;28.38;;;10.43;;
42200;SDS011;27869;51.442;7.540;2023-02-15T08:01:57;25.63;;;10.20;;
42200;SDS011;27869;51.442;7.540;2023-02-15T08:04:24;28.70;;;9.95;;
42200;SDS011;27869;51.442;7.540;2023-02-15T08:06:52;26.73;;;10.27;;
42200;SDS011;27869;51.442;7.540;2023-02-15T08:09:20;27.45;;;10.68;;
42200;SDS011;27869;51.442;7.540;2023-02-15T08:11:48;26.83;;;10.48;;
42200;SDS011;27869;51.442;7.540;2023-02-15T08:14:16;26.23;;;10.82;;
42200;SDS011;27869;51.442;7.540;2023-02-15T08:16:46;27.88;;;11.43;;
42200;SDS011;27869;51.442;7.540;2023-02-15T08:19:14;28.50;;;11.02;;
42200;SDS011;27869;51.442;7.540;2023-02-15T08:21:43;29.67;;;10.77;;
42200;SDS011;27869;51.442;7.540;2023-02-15T08:24:12;24.02;;;10.32;;
42200;SDS011;27869;51.442;7.540;2023-02-15T08:26:40;25.65;;;10.88;;
42200;SDS011;27869;51.442;7.540;2023-02-15T08:31:36;23.70;;;9.27;;
42200;SDS011;27869;51.442;7.540;2023-02-15T08:34:07;24.83;;;9.73;;
42200;SDS011;27869;51.442;7.540;2023-02-15T08:36:34;26.48;;;9.90;;
42200;SDS011;27869;51.442;7.540;2023-02-15T08:39:02;28.50;;;10.70;;
42200;SDS011;27869;51.442;7.540;2023-02-15T08:43:59;28.02;;;9.45;;
42200;SDS011;27869;51.442;7.540;2023-02-15T08:46:28;26.60;;;10.32;;
42200;SDS011;27869;51.442;7.540;2023-02-15T08:48:56;27.92;;;10.13;;
42200;SDS011;27869;51.442;7.540;2023-02-15T08:51:26;25.52;;;9.35;;
42200;SDS011;27869;51.442;7.540;2023-02-15T08:53:55;28.55;;;9.52;;
42200;SDS011;27869;51.442;7.540;2023-02-15T08:56:24;26.35;;;8.88;;
42200;SDS011;27869;51.442;7.540;2023-02-15T08:58:53;22.98;;;10.13;;
42200;SDS011;27869;51.442;7.540;2023-02-15T09:01:22;21.23;;;8.93;;
42200;SDS011;27869;51.442;7.540;2023-02-15T09:03:52;26.63;;;9.52;;
42200;SDS011;27869;51.442;7.540;2023-02-15T09:06:22;24.73;;;9.50;;
42200;SDS011;27869;51.442;7.540;2023-02-15T09:08:51;25.20;;;9.43;;
42200;SDS011;27869;51.442;7.540;2023-02-15T09:11:19;30.40;;;9.32;;
42200;SDS011;27869;51.442;7.540;2023-02-15T09:13:49;22.40;;;8.55;;
42200;SDS011;27869;51.442;7.540;2023-02-15T09:16:17;23.60;;;9.10;;
42200;SDS011;27869;51.442;7.540;2023-02-15T09:18:44;26.38;;;9.10;;
42200;SDS011;27869;51.442;7.540;2023-02-15T09:21:12;22.65;;;8.82;;
42200;SDS011;27869;51.442;7.540;2023-02-15T09:23:41;22.95;;;9.57;;
42200;SDS011;27869;51.442;7.540;2023-02-15T09:26:11;24.73;;;9.25;;
42200;SDS011;27869;51.442;7.540;2023-02-15T09:28:39;28.30;;;8.85;;
42200;SDS011;27869;51.442;7.540;2023-02-15T09:31:08;20.83;;;8.10;;
42200;SDS011;27869;51.442;7.540;2023-02-15T09:33:36;22.08;;;8.75;;
42200;SDS011;27869;51.442;7.540;2023-02-15T09:36:04;24.42;;;8.80;;
42200;SDS011;27869;51.442;7.540;2023-02-15T09:38:32;22.48;;;8.45;;
42200;SDS011;27869;51.442;7.540;2023-02-15T09:41:03;21.67;;;8.55;;
42200;SDS011;27869;51.442;7.540;2023-02-15T09:43:41;22.70;;;8.88;;
42200;SDS011;27869;51.442;7.540;2023-02-15T09:46:24;22.52;;;8.88;;
42200;SDS011;27869;51.442;7.540;2023-02-15T09:49:06;23.85;;;8.32;;
42200;SDS011;27869;51.442;7.540;2023-02-15T09:51:49;19.90;;;8.25;;
42200;SDS011;27869;51.442;7.540;2023-02-15T09:54:34;21.15;;;8.35;;
42200;SDS011;27869;51.442;7.540;2023-02-15T09:57:15;26.52;;;9.02;;
42200;SDS011;27869;51.442;7.540;2023-02-15T09:59:53;23.60;;;8.50;;
42200;SDS011;27869;51.442;7.540;2023-02-15T10:02:33;20.88;;;7.88;;
42200;SDS011;27869;51.442;7.540;2023-02-15T10:05:20;21.38;;;7.78;;
42200;SDS011;27869;51.442;7.540;2023-02-15T10:08:18;20.85;;;7.93;;
42200;SDS011;27869;51.442;7.540;2023-02-15T10:10:57;20.38;;;7.65;;
42200;SDS011;27869;51.442;7.540;2023-02-15T10:13:49;21.38;;;8.40;;
42200;SDS011;27869;51.442;7.540;2023-02-15T10:16:25;21.70;;;7.75;;
42200;SDS011;27869;51.442;7.540;2023-02-15T10:19:02;19.65;;;7.90;;
42200;SDS011;27869;51.442;7.540;2023-02-15T10:21:38;25.88;;;8.30;;
42200;SDS011;27869;51.442;7.540;2023-02-15T10:24:16;20.38;;;7.43;;
42200;SDS011;27869;51.442;7.540;2023-02-15T10:27:06;20.88;;;7.43;;
42200;SDS011;27869;51.442;7.540;2023-02-15T10:29:41;24.75;;;7.60;;
42200;SDS011;27869;51.442;7.540;2023-02-15T10:32:17;24.63;;;7.50;;
42200;SDS011;27869;51.442;7.540;2023-02-15T10:34:50;19.17;;;6.68;;
42200;SDS011;27869;51.442;7.540;2023-02-15T10:37:29;22.20;;;7.45;;
42200;SDS011;27869;51.442;7.540;2023-02-15T10:40:14;21.65;;;6.63;;
42200;SDS011;27869;51.442;7.540;2023-02-15T10:42:52;20.58;;;7.15;;
42200;SDS011;27869;51.442;7.540;2023-02-15T10:45:48;22.80;;;6.75;;
42200;SDS011;27869;51.442;7.540;2023-02-15T10:48:24;19.08;;;6.20;;
42200;SDS011;27869;51.442;7.540;2023-02-15T10:51:02;22.52;;;7.55;;
42200;SDS011;27869;51.442;7.540;2023-02-15T10:53:37;18.98;;;6.78;;
42200;SDS011;27869;51.442;7.540;2023-02-15T10:56:21;18.73;;;6.22;;
42200;SDS011;27869;51.442;7.540;2023-02-15T10:58:59;21.15;;;6.53;;
42200;SDS011;27869;51.442;7.540;2023-02-15T11:01:46;16.40;;;6.10;;
42200;SDS011;27869;51.442;7.540;2023-02-15T11:07:20;18.40;;;5.97;;
42200;SDS011;27869;51.442;7.540;2023-02-15T11:09:50;20.83;;;6.68;;
42200;SDS011;27869;51.442;7.540;2023-02-15T11:12:23;21.27;;;6.57;;
42200;SDS011;27869;51.442;7.540;2023-02-15T11:14:53;19.52;;;6.88;;
42200;SDS011;27869;51.442;7.540;2023-02-15T11:17:26;20.85;;;6.80;;
42200;SDS011;27869;51.442;7.540;2023-02-15T11:22:30;22.15;;;6.15;;
42200;SDS011;27869;51.442;7.540;2023-02-15T11:24:59;19.67;;;6.70;;
42200;SDS011;27869;51.442;7.540;2023-02-15T11:27:29;21.52;;;6.57;;
42200;SDS011;27869;51.442;7.540;2023-02-15T11:29:59;18.35;;;7.07;;
42200;SDS011;27869;51.442;7.540;2023-02-15T11:32:30;18.85;;;6.70;;
42200;SDS011;27869;51.442;7.540;2023-02-15T11:35:00;18.25;;;6.47;;
42200;SDS011;27869;51.442;7.540;2023-02-15T11:37:32;23.08;;;6.70;;
42200;SDS011;27869;51.442;7.540;2023-02-15T11:40:03;18.80;;;6.35;;
42200;SDS011;27869;51.442;7.540;2023-02-15T11:42:43;24.50;;;7.07;;
42200;SDS011;27869;51.442;7.540;2023-02-15T11:45:16;17.77;;;5.85;;
42200;SDS011;27869;51.442;7.540;2023-02-15T11:47:52;16.88;;;6.18;;
42200;SDS011;27869;51.442;7.540;2023-02-15T11:50:21;21.00;;;7.00;;
42200;SDS011;27869;51.442;7.540;2023-02-15T11:52:51;19.52;;;6.65;;
42200;SDS011;27869;51.442;7.540;2023-02-15T11:55:21;18.00;;;6.20;;
42200;SDS011;27869;51.442;7.540;2023-02-15T12:00:20;16.48;;;5.35;;
42200;SDS011;27869;51.442;7.540;2023-02-15T12:03:02;16.67;;;5.60;;
42200;SDS011;27869;51.442;7.540;2023-02-15T12:05:39;15.40;;;5.25;;
42200;SDS011;27869;51.442;7.540;2023-02-15T12:08:10;16.38;;;5.15;;
42200;SDS011;27869;51.442;7.540;2023-02-15T12:10:43;14.73;;;4.90;;
42200;SDS011;27869;51.442;7.540;2023-02-15T12:13:22;16.40;;;5.00;;
42200;SDS011;27869;51.442;7.540;2023-02-15T12:15:50;17.70;;;4.85;;
42200;SDS011;27869;51.442;7.540;2023-02-15T12:18:24;17.05;;;4.75;;
42200;SDS011;27869;51.442;7.540;2023-02-15T12:21:03;21.75;;;5.75;;
42200;SDS011;27869;51.442;7.540;2023-02-15T12:23:33;17.05;;;4.13;;
42200;SDS011;27869;51.442;7.540;2023-02-15T12:26:05;16.27;;;4.55;;
42200;SDS011;27869;51.442;7.540;2023-02-15T12:28:33;16.48;;;5.00;;
42200;SDS011;27869;51.442;7.540;2023-02-15T12:31:03;15.38;;;5.15;;
42200;SDS011;27869;51.442;7.540;2023-02-15T12:33:38;15.35;;;4.22;;
42200;SDS011;27869;51.442;7.540;2023-02-15T12:36:11;16.45;;;4.50;;
42200;SDS011;27869;51.442;7.540;2023-02-15T12:38:41;14.77;;;4.55;;
42200;SDS011;27869;51.442;7.540;2023-02-15T12:41:21;14.30;;;4.38;;
42200;SDS011;27869;51.442;7.540;2023-02-15T12:43:58;14.30;;;4.40;;
42200;SDS011;27869;51.442;7.540;2023-02-15T12:46:31;15.85;;;4.68;;
42200;SDS011;27869;51.442;7.540;2023-02-15T12:49:13;16.33;;;4.80;;
42200;SDS011;27869;51.442;7.540;2023-02-15T12:51:44;15.43;;;4.55;;
42200;SDS011;27869;51.442;7.540;2023-02-15T12:54:17;16.95;;;5.15;;
42200;SDS011;27869;51.442;7.540;2023-02-15T12:56:51;16.63;;;5.07;;
42200;SDS011;27869;51.442;7.540;2023-02-15T12:59:18;15.13;;;4.25;;
42200;SDS011;27869;51.442;7.540;2023-02-15T13:01:46;14.10;;;4.45;;
42200;SDS011;27869;51.442;7.540;2023-02-15T13:04:17;13.65;;;4.47;;
42200;SDS011;27869;51.442;7.540;2023-02-15T13:06:48;15.48;;;5.32;;
42200;SDS011;27869;51.442;7.540;2023-02-15T13:09:18;15.70;;;4.90;;
42200;SDS011;27869;51.442;7.540;2023-02-15T13:12:09;14.25;;;4.90;;
42200;SDS011;27869;51.442;7.540;2023-02-15T13:14:42;17.30;;;5.25;;
42200;SDS011;27869;51.442;7.540;2023-02-15T13:17:10;15.82;;;5.03;;
42200;SDS011;27869;51.442;7.540;2023-02-15T13:19:42;16.67;;;5.22;;
42200;SDS011;27869;51.442;7.540;2023-02-15T13:22:12;16.45;;;4.88;;
42200;SDS011;27869;51.442;7.540;2023-02-15T13:24:43;15.80;;;4.97;;
42200;SDS011;27869;51.442;7.540;2023-02-15T13:27:14;15.95;;;4.85;;
42200;SDS011;27869;51.442;7.540;2023-02-15T13:29:44;16.70;;;5.95;;
42200;SDS011;27869;51.442;7.540;2023-02-15T13:32:17;14.52;;;4.50;;
42200;SDS011;27869;51.442;7.540;2023-02-15T13:34:54;15.30;;;5.22;;
42200;SDS011;27869;51.442;7.540;2023-02-15T13:37:28;18.23;;;5.68;;
42200;SDS011;27869;51.442;7.540;2023-02-15T13:40:12;14.18;;;4.63;;
42200;SDS011;27869;51.442;7.540;2023-02-15T13:42:44;21.17;;;5.72;;
42200;SDS011;27869;51.442;7.540;2023-02-15T13:45:21;16.60;;;5.45;;
42200;SDS011;27869;51.442;7.540;2023-02-15T13:48:03;18.23;;;5.07;;
42200;SDS011;27869;51.442;7.540;2023-02-15T13:50:45;16.40;;;4.65;;
42200;SDS011;27869;51.442;7.540;2023-02-15T13:53:25;18.75;;;5.47;;
42200;SDS011;27869;51.442;7.540;2023-02-15T13:56:14;15.68;;;5.22;;
42200;SDS011;27869;51.442;7.540;2023-02-15T13:58:52;17.63;;;5.50;;
42200;SDS011;27869;51.442;7.540;2023-02-15T14:01:31;20.00;;;5.38;;
42200;SDS011;27869;51.442;7.540;2023-02-15T14:07:07;16.83;;;5.53;;
42200;SDS011;27869;51.442;7.540;2023-02-15T14:09:49;19.80;;;5.53;;
42200;SDS011;27869;51.442;7.540;2023-02-15T14:12:27;18.13;;;5.05;;
42200;SDS011;27869;51.442;7.540;2023-02-15T14:15:18;16.17;;;5.30;;
42200;SDS011;27869;51.442;7.540;2023-02-15T14:17:57;15.00;;;4.97;;
42200;SDS011;27869;51.442;7.540;2023-02-15T14:20:32;15.23;;;4.70;;
42200;SDS011;27869;51.442;7.540;2023-02-15T14:23:11;18.38;;;5.88;;
42200;SDS011;27869;51.442;7.540;2023-02-15T14:25:53;18.10;;;5.75;;
42200;SDS011;27869;51.442;7.540;2023-02-15T14:28:27;16.55;;;5.32;;
42200;SDS011;27869;51.442;7.540;2023-02-15T14:31:08;18.70;;;5.57;;
42200;SDS011;27869;51.442;7.540;2023-02-15T14:33:38;17.50;;;5.65;;
42200;SDS011;27869;51.442;7.540;2023-02-15T14:36:07;16.65;;;4.95;;
42200;SDS011;27869;51.442;7.540;2023-02-15T14:38:48;20.95;;;5.60;;
42200;SDS011;27869;51.442;7.540;2023-02-15T14:41:23;16.33;;;6.07;;
42200;SDS011;27869;51.442;7.540;2023-02-15T14:43:56;16.45;;;5.28;;
42200;SDS011;27869;51.442;7.540;2023-02-15T14:46:34;16.40;;;5.30;;
42200;SDS011;27869;51.442;7.540;2023-02-15T14:49:06;18.48;;;5.18;;
42200;SDS011;27869;51.442;7.540;2023-02-15T14:57:24;18.48;;;5.57;;
42200;SDS011;27869;51.442;7.540;2023-02-15T14:59:54;20.38;;;6.28;;
42200;SDS011;27869;51.442;7.540;2023-02-15T15:02:25;18.63;;;5.57;;
42200;SDS011;27869;51.442;7.540;2023-02-15T15:05:02;18.95;;;5.93;;
42200;SDS011;27869;51.442;7.540;2023-02-15T15:07:40;16.58;;;5.38;;
42200;SDS011;27869;51.442;7.540;2023-02-15T15:19:08;17.27;;;5.18;;
42200;SDS011;27869;51.442;7.540;2023-02-15T15:21:51;20.90;;;6.22;;
42200;SDS011;27869;51.442;7.540;2023-02-15T15:33:18;19.35;;;6.40;;
42200;SDS011;27869;51.442;7.540;2023-02-15T15:36:14;18.42;;;5.60;;
42200;SDS011;27869;51.442;7.540;2023-02-15T15:39:12;19.58;;;6.32;;
42200;SDS011;27869;51.442;7.540;2023-02-15T15:41:53;17.25;;;5.53;;
42200;SDS011;27869;51.442;7.540;2023-02-15T15:44:42;18.63;;;5.95;;